Time;durP1;ratioP1;P1;durP2;ratioP2;P2;SDS_P1;SDS_P2;PMS_P1;PMS_P2;Temp;Humidity;BMP_temperature;BMP_pressure;BME280_temperature;BME280_humidity;BME280_pressure;Samples;Min_cycle;Max_cycle;Signal;HPM_P1;HPM_P2
2024/02/05 00:00:24;;;;;;;13.07;8.80;;;;;;;;;;5067879;28;20096;-55
2024/02/05 00:02:51;;;;;;;12.52;7.88;;;;;;;;;;5071538;28;20033;-56
2024/02/05 00:05:17;;;;;;;16.15;8.95;;;;;;;;;;5076244;28;20092;-58
2024/02/05 00:07:44;;;;;;;13.75;8.40;;;;;;;;;;5084339;28;20028;-55
2024/02/05 00:10:10;;;;;;;12.27;7.93;;;;;;;;;;5082472;28;20305;-55
2024/02/05 00:12:37;;;;;;;11.18;8.27;;;;;;;;;;5079561;28;20059;-56
2024/02/05 00:15:05;;;;;;;12.68;8.20;;;;;;;;;;5067172;28;20293;-57
2024/02/05 00:17:32;;;;;;;14.18;8.05;;;;;;;;;;5067131;28;20039;-54
2024/02/05 00:19:59;;;;;;;14.63;8.48;;;;;;;;;;5081632;28;20292;-58
2024/02/05 00:22:25;;;;;;;12.05;8.25;;;;;;;;;;5083208;28;20028;-57
2024/02/05 00:24:52;;;;;;;17.02;9.15;;;;;;;;;;5083776;28;20020;-56
2024/02/05 00:27:18;;;;;;;12.70;9.07;;;;;;;;;;5085117;28;20059;-57
2024/02/05 00:29:46;;;;;;;14.40;8.90;;;;;;;;;;5078443;28;20209;-59
2024/02/05 00:32:12;;;;;;;11.85;8.63;;;;;;;;;;5086936;28;20032;-60
2024/02/05 00:34:39;;;;;;;12.80;9.07;;;;;;;;;;5076758;28;20084;-61
2024/02/05 00:37:05;;;;;;;13.80;9.35;;;;;;;;;;5085260;28;20020;-58
2024/02/05 00:39:32;;;;;;;11.93;8.40;;;;;;;;;;5080697;28;20021;-57
2024/02/05 00:41:58;;;;;;;11.55;9.20;;;;;;;;;;5081630;28;20024;-58
2024/02/05 00:44:25;;;;;;;14.82;9.43;;;;;;;;;;5079936;28;20115;-58
2024/02/05 00:46:52;;;;;;;15.30;10.38;;;;;;;;;;5080503;28;20376;-57
2024/02/05 00:49:19;;;;;;;15.13;11.35;;;;;;;;;;5073186;28;20020;-58
2024/02/05 00:51:45;;;;;;;20.98;12.55;;;;;;;;;;5081625;28;20368;-56
2024/02/05 00:54:12;;;;;;;16.52;12.57;;;;;;;;;;5085475;28;20309;-63
2024/02/05 00:56:38;;;;;;;16.30;12.13;;;;;;;;;;5079051;28;20212;-58
2024/02/05 00:59:06;;;;;;;14.90;11.55;;;;;;;;;;5066432;28;20438;-59
2024/02/05 01:01:35;;;;;;;17.20;11.65;;;;;;;;;;5071671;28;20031;-59
2024/02/05 01:04:02;;;;;;;16.30;11.50;;;;;;;;;;5077947;28;20028;-58
2024/02/05 01:06:29;;;;;;;13.57;10.85;;;;;;;;;;5066147;28;20029;-56
2024/02/05 01:08:56;;;;;;;14.15;9.85;;;;;;;;;;5066089;28;20040;-57
2024/02/05 01:11:23;;;;;;;17.90;12.10;;;;;;;;;;5066636;28;20025;-56
2024/02/05 01:13:50;;;;;;;21.65;13.98;;;;;;;;;;5066099;28;20100;-61
2024/02/05 01:16:17;;;;;;;19.92;14.25;;;;;;;;;;5080296;28;20024;-58
2024/02/05 01:18:43;;;;;;;20.40;15.40;;;;;;;;;;5075950;28;20029;-59
2024/02/05 01:21:10;;;;;;;22.38;16.00;;;;;;;;;;5066169;28;20035;-59
2024/02/05 01:23:36;;;;;;;26.73;19.65;;;;;;;;;;5065786;28;20310;-55
2024/02/05 01:26:03;;;;;;;26.48;16.05;;;;;;;;;;5066273;28;20093;-56
2024/02/05 01:28:30;;;;;;;23.35;16.98;;;;;;;;;;5067791;28;20029;-55
2024/02/05 01:30:57;;;;;;;20.17;15.10;;;;;;;;;;5083350;28;20028;-58
2024/02/05 01:33:23;;;;;;;27.73;17.15;;;;;;;;;;5085818;28;20316;-58
2024/02/05 01:35:50;;;;;;;28.48;17.27;;;;;;;;;;5085806;28;20026;-58
2024/02/05 01:38:17;;;;;;;27.98;18.35;;;;;;;;;;5085604;28;20212;-58
2024/02/05 01:40:44;;;;;;;21.80;15.18;;;;;;;;;;5082896;28;20016;-57
2024/02/05 01:43:11;;;;;;;24.45;15.10;;;;;;;;;;5076751;28;20087;-59
2024/02/05 01:45:37;;;;;;;21.65;15.38;;;;;;;;;;5074457;28;20017;-57
2024/02/05 01:48:04;;;;;;;19.92;15.70;;;;;;;;;;5076595;28;20028;-56
2024/02/05 01:50:31;;;;;;;20.85;14.98;;;;;;;;;;5065127;28;20079;-56
2024/02/05 01:52:57;;;;;;;21.50;16.60;;;;;;;;;;5065271;28;20085;-56
2024/02/05 01:55:25;;;;;;;23.48;16.80;;;;;;;;;;5065686;28;20118;-61
2024/02/05 01:57:52;;;;;;;20.52;17.33;;;;;;;;;;5065364;28;20044;-55
2024/02/05 02:00:19;;;;;;;23.75;16.92;;;;;;;;;;5065406;28;20232;-57
2024/02/05 02:02:46;;;;;;;24.27;18.75;;;;;;;;;;5064879;28;20066;-55
2024/02/05 02:05:13;;;;;;;29.45;21.05;;;;;;;;;;5073756;28;20092;-57
2024/02/05 02:07:40;;;;;;;23.23;20.60;;;;;;;;;;5084947;28;20028;-56
2024/02/05 02:10:07;;;;;;;27.33;19.90;;;;;;;;;;5085184;28;20020;-59
2024/02/05 02:12:33;;;;;;;28.67;18.58;;;;;;;;;;5085065;28;20036;-58
2024/02/05 02:15:00;;;;;;;24.27;17.95;;;;;;;;;;5079879;28;20024;-54
2024/02/05 02:17:29;;;;;;;21.27;16.80;;;;;;;;;;5084833;28;20083;-57
2024/02/05 02:19:56;;;;;;;20.48;16.38;;;;;;;;;;5084655;28;20020;-57
2024/02/05 02:22:23;;;;;;;18.98;15.88;;;;;;;;;;5084703;28;20024;-58
2024/02/05 02:24:50;;;;;;;19.50;15.35;;;;;;;;;;5084942;28;20303;-56
2024/02/05 02:27:16;;;;;;;21.73;15.60;;;;;;;;;;5084067;28;20091;-60
2024/02/05 02:29:44;;;;;;;19.67;14.38;;;;;;;;;;5072899;28;20021;-57
2024/02/05 02:32:10;;;;;;;20.83;14.18;;;;;;;;;;5084566;28;20114;-59
2024/02/05 02:34:40;;;;;;;16.85;13.52;;;;;;;;;;5084355;28;20020;-59
2024/02/05 02:37:08;;;;;;;17.80;14.15;;;;;;;;;;5083379;28;20024;-59
2024/02/05 02:39:38;;;;;;;17.35;13.07;;;;;;;;;;5084488;28;20020;-58
2024/02/05 02:42:06;;;;;;;16.95;12.73;;;;;;;;;;5083219;28;20044;-58
2024/02/05 02:44:34;;;;;;;15.98;13.02;;;;;;;;;;5082767;28;20113;-57
2024/02/05 02:47:01;;;;;;;15.15;12.05;;;;;;;;;;5084192;28;20055;-55
2024/02/05 02:49:30;;;;;;;15.88;12.23;;;;;;;;;;5083959;28;20045;-55
2024/02/05 02:51:56;;;;;;;15.07;12.40;;;;;;;;;;5084107;28;20052;-55
2024/02/05 02:54:23;;;;;;;19.98;12.55;;;;;;;;;;5075260;28;20376;-59
2024/02/05 02:56:50;;;;;;;16.42;12.07;;;;;;;;;;5080002;28;20190;-56
2024/02/05 02:59:16;;;;;;;15.98;12.10;;;;;;;;;;5078675;28;20343;-54
2024/02/05 03:01:43;;;;;;;16.65;11.20;;;;;;;;;;5064119;28;20314;-55
2024/02/05 03:04:10;;;;;;;17.85;12.25;;;;;;;;;;5080928;28;20080;-56
2024/02/05 03:06:36;;;;;;;17.30;11.13;;;;;;;;;;5083476;28;20024;-54
2024/02/05 03:09:03;;;;;;;16.65;11.75;;;;;;;;;;5084144;28;20020;-55
2024/02/05 03:11:30;;;;;;;15.55;11.80;;;;;;;;;;5084454;28;20062;-57
2024/02/05 03:13:56;;;;;;;13.68;11.32;;;;;;;;;;5083686;28;20030;-57
2024/02/05 03:16:23;;;;;;;15.95;11.52;;;;;;;;;;5084449;28;20032;-59
2024/02/05 03:18:49;;;;;;;19.73;11.27;;;;;;;;;;5083720;28;20036;-57
2024/02/05 03:21:16;;;;;;;16.60;11.43;;;;;;;;;;5084328;28;20021;-58
2024/02/05 03:23:45;;;;;;;15.27;10.85;;;;;;;;;;5084026;28;20036;-55
2024/02/05 03:26:13;;;;;;;16.40;10.95;;;;;;;;;;5084248;28;20024;-56
2024/02/05 03:28:40;;;;;;;13.75;11.15;;;;;;;;;;5083707;28;20317;-56
2024/02/05 03:31:07;;;;;;;14.85;10.60;;;;;;;;;;5084272;28;20024;-58
2024/02/05 03:33:34;;;;;;;14.32;10.38;;;;;;;;;;5083610;28;20027;-58
2024/02/05 03:36:02;;;;;;;14.93;10.82;;;;;;;;;;5083984;28;20099;-56
2024/02/05 03:38:28;;;;;;;15.20;10.85;;;;;;;;;;5083736;28;20027;-57
2024/02/05 03:40:56;;;;;;;12.43;10.20;;;;;;;;;;5084050;28;20342;-57
2024/02/05 03:43:22;;;;;;;15.18;9.95;;;;;;;;;;5083477;28;20071;-54
2024/02/05 03:45:49;;;;;;;15.82;9.68;;;;;;;;;;5083987;28;20020;-56
2024/02/05 03:48:16;;;;;;;13.15;9.82;;;;;;;;;;5083598;28;20031;-57
2024/02/05 03:50:42;;;;;;;12.55;9.52;;;;;;;;;;5083702;28;20020;-57
2024/02/05 03:53:09;;;;;;;16.80;9.77;;;;;;;;;;5083475;28;20217;-57
2024/02/05 03:55:35;;;;;;;17.45;9.90;;;;;;;;;;5082720;28;20016;-59
2024/02/05 03:58:03;;;;;;;11.48;9.45;;;;;;;;;;5078013;28;20134;-61
2024/02/05 04:00:30;;;;;;;11.95;9.65;;;;;;;;;;5082279;28;20056;-59
2024/02/05 04:02:57;;;;;;;13.48;9.38;;;;;;;;;;5082767;28;20021;-61
2024/02/05 04:05:28;;;;;;;14.20;8.95;;;;;;;;;;5081908;28;20048;-58
2024/02/05 04:07:55;;;;;;;11.88;8.93;;;;;;;;;;5082540;28;20029;-56
2024/02/05 04:10:22;;;;;;;13.45;9.23;;;;;;;;;;5082246;28;20012;-58
2024/02/05 04:12:48;;;;;;;14.70;9.13;;;;;;;;;;5083158;28;20247;-58
2024/02/05 04:15:15;;;;;;;14.98;9.00;;;;;;;;;;5083065;28;20032;-59
2024/02/05 04:17:41;;;;;;;15.48;9.40;;;;;;;;;;5082833;28;20092;-61
2024/02/05 04:20:09;;;;;;;15.55;9.40;;;;;;;;;;5082957;28;20039;-61
2024/02/05 04:22:38;;;;;;;14.70;9.10;;;;;;;;;;5082607;28;20025;-58
2024/02/05 04:25:08;;;;;;;11.80;8.85;;;;;;;;;;5084119;28;20020;-58
2024/02/05 04:27:35;;;;;;;11.75;9.25;;;;;;;;;;5086214;28;20028;-55
2024/02/05 04:30:03;;;;;;;15.75;9.50;;;;;;;;;;5086453;28;20224;-55
2024/02/05 04:32:31;;;;;;;14.32;9.68;;;;;;;;;;5086393;28;20016;-56
2024/02/05 04:34:58;;;;;;;12.38;9.23;;;;;;;;;;5086503;28;20209;-53
2024/02/05 04:37:26;;;;;;;15.55;9.35;;;;;;;;;;5086223;28;20021;-59
2024/02/05 04:39:54;;;;;;;11.82;8.43;;;;;;;;;;5086357;28;20020;-56
2024/02/05 04:42:21;;;;;;;13.43;9.18;;;;;;;;;;5086092;28;20075;-61
2024/02/05 04:44:47;;;;;;;13.73;9.55;;;;;;;;;;5083575;28;20055;-61
2024/02/05 04:47:14;;;;;;;15.15;9.30;;;;;;;;;;5086075;28;20316;-55
2024/02/05 04:49:42;;;;;;;16.83;9.10;;;;;;;;;;5086043;28;20348;-55
2024/02/05 04:52:08;;;;;;;16.02;9.50;;;;;;;;;;5083483;28;20070;-59
2024/02/05 04:54:35;;;;;;;14.68;10.27;;;;;;;;;;5086055;28;20032;-58
2024/02/05 04:57:02;;;;;;;12.55;8.85;;;;;;;;;;5085873;28;20194;-57
2024/02/05 04:59:28;;;;;;;13.88;9.60;;;;;;;;;;5085965;28;20343;-64
2024/02/05 05:01:55;;;;;;;16.00;10.40;;;;;;;;;;5085795;28;20327;-56
2024/02/05 05:04:22;;;;;;;21.20;10.20;;;;;;;;;;5085776;28;20034;-54
2024/02/05 05:06:49;;;;;;;23.63;10.55;;;;;;;;;;5085707;28;20101;-58
2024/02/05 05:09:15;;;;;;;21.13;10.25;;;;;;;;;;5085932;28;20353;-58
2024/02/05 05:11:42;;;;;;;20.65;10.68;;;;;;;;;;5085690;28;20340;-58
2024/02/05 05:14:08;;;;;;;31.73;10.82;;;;;;;;;;5085528;28;20022;-58
2024/02/05 05:16:35;;;;;;;21.45;10.88;;;;;;;;;;5086142;28;20020;-57
2024/02/05 05:19:02;;;;;;;20.55;9.98;;;;;;;;;;5085579;28;20036;-52
2024/02/05 05:21:29;;;;;;;15.38;9.52;;;;;;;;;;5085411;28;20016;-60
2024/02/05 05:23:55;;;;;;;23.10;10.13;;;;;;;;;;5085477;28;20020;-63
2024/02/05 05:26:23;;;;;;;16.90;10.55;;;;;;;;;;5085768;28;20032;-50
2024/02/05 05:28:51;;;;;;;19.67;10.13;;;;;;;;;;5085267;28;20075;-57
2024/02/05 05:31:17;;;;;;;16.83;10.23;;;;;;;;;;5085671;28;20026;-55
2024/02/05 05:33:45;;;;;;;19.13;10.43;;;;;;;;;;5085303;28;20016;-62
2024/02/05 05:36:12;;;;;;;15.70;9.32;;;;;;;;;;5084351;28;20027;-60
2024/02/05 05:38:39;;;;;;;15.00;9.73;;;;;;;;;;5085272;28;20013;-57
2024/02/05 05:41:06;;;;;;;15.55;10.23;;;;;;;;;;5085503;28;20304;-53
2024/02/05 05:43:32;;;;;;;14.88;9.93;;;;;;;;;;5084834;28;20048;-57
2024/02/05 05:45:59;;;;;;;14.90;9.80;;;;;;;;;;5085392;28;20025;-57
2024/02/05 05:48:25;;;;;;;17.70;10.52;;;;;;;;;;5084900;28;20013;-55
2024/02/05 05:50:52;;;;;;;14.35;9.50;;;;;;;;;;5085043;28;20017;-58
2024/02/05 05:53:19;;;;;;;17.02;10.18;;;;;;;;;;5084920;28;20239;-57
2024/02/05 05:55:47;;;;;;;14.25;9.75;;;;;;;;;;5085136;28;20023;-57
2024/02/05 05:58:14;;;;;;;13.80;9.52;;;;;;;;;;5084616;28;20020;-61
2024/02/05 06:00:40;;;;;;;11.35;9.05;;;;;;;;;;5079336;28;20047;-55
2024/02/05 06:03:07;;;;;;;13.65;10.15;;;;;;;;;;5074333;28;20029;-55
2024/02/05 06:05:34;;;;;;;12.13;9.25;;;;;;;;;;5085375;28;20024;-57
2024/02/05 06:08:00;;;;;;;17.48;9.85;;;;;;;;;;5085205;28;20074;-53
2024/02/05 06:10:27;;;;;;;13.95;9.98;;;;;;;;;;5085477;28;20028;-59
2024/02/05 06:12:53;;;;;;;13.90;8.95;;;;;;;;;;5085196;28;20210;-53
2024/02/05 06:15:20;;;;;;;17.48;9.77;;;;;;;;;;5085226;28;20062;-54
2024/02/05 06:17:46;;;;;;;12.73;8.93;;;;;;;;;;5084984;28;20024;-56
2024/02/05 06:20:13;;;;;;;13.35;8.63;;;;;;;;;;5085040;28;20017;-56
2024/02/05 06:22:40;;;;;;;15.35;9.40;;;;;;;;;;5085111;28;20028;-60
2024/02/05 06:25:06;;;;;;;12.20;9.18;;;;;;;;;;5084987;28;20324;-56
2024/02/05 06:27:33;;;;;;;15.68;9.00;;;;;;;;;;5084695;28;20046;-60
2024/02/05 06:30:00;;;;;;;11.55;9.25;;;;;;;;;;5082443;28;20032;-60
2024/02/05 06:32:26;;;;;;;12.88;9.00;;;;;;;;;;5073406;28;20063;-59
2024/02/05 06:34:53;;;;;;;11.95;8.77;;;;;;;;;;5064746;28;20044;-58
2024/02/05 06:37:19;;;;;;;10.77;8.98;;;;;;;;;;5064752;28;20299;-62
2024/02/05 06:39:46;;;;;;;13.35;9.57;;;;;;;;;;5068762;28;20032;-54
2024/02/05 06:42:13;;;;;;;14.10;8.82;;;;;;;;;;5083913;28;20035;-62
2024/02/05 06:44:41;;;;;;;16.30;9.70;;;;;;;;;;5084286;28;20044;-57
2024/02/05 06:47:08;;;;;;;14.27;9.55;;;;;;;;;;5084061;28;20376;-57
2024/02/05 06:49:34;;;;;;;14.07;9.73;;;;;;;;;;5083870;28;20028;-54
2024/02/05 06:52:01;;;;;;;18.38;9.68;;;;;;;;;;5084137;28;20016;-55
2024/02/05 06:54:28;;;;;;;23.08;10.00;;;;;;;;;;5083068;28;20020;-56
2024/02/05 06:56:54;;;;;;;23.17;10.60;;;;;;;;;;5084368;28;20028;-56
2024/02/05 06:59:21;;;;;;;17.30;9.75;;;;;;;;;;5084114;28;20055;-56
2024/02/05 07:01:47;;;;;;;23.08;9.68;;;;;;;;;;5084565;28;20028;-57
2024/02/05 07:04:14;;;;;;;16.98;9.95;;;;;;;;;;5084209;28;20027;-57
2024/02/05 07:06:40;;;;;;;20.48;9.60;;;;;;;;;;5083992;28;20229;-62
2024/02/05 07:09:08;;;;;;;22.98;10.02;;;;;;;;;;5084248;28;20013;-56
2024/02/05 07:11:37;;;;;;;14.88;9.32;;;;;;;;;;5084642;28;20089;-55
2024/02/05 07:14:04;;;;;;;15.13;9.68;;;;;;;;;;5083981;28;20272;-55
2024/02/05 07:16:30;;;;;;;16.60;9.55;;;;;;;;;;5084599;28;20323;-58
2024/02/05 07:18:57;;;;;;;17.88;8.77;;;;;;;;;;5084110;28;20032;-57
2024/02/05 07:21:23;;;;;;;16.13;9.10;;;;;;;;;;5084324;28;20024;-59
2024/02/05 07:23:50;;;;;;;15.75;9.75;;;;;;;;;;5084186;28;20055;-57
2024/02/05 07:26:17;;;;;;;16.60;9.05;;;;;;;;;;5079075;28;20017;-55
2024/02/05 07:28:44;;;;;;;16.75;9.48;;;;;;;;;;5063755;28;20023;-53
2024/02/05 07:31:11;;;;;;;11.70;8.80;;;;;;;;;;5064377;28;20032;-57
2024/02/05 07:33:38;;;;;;;12.63;9.10;;;;;;;;;;5063794;28;20017;-60
2024/02/05 07:36:05;;;;;;;14.48;9.48;;;;;;;;;;5073299;28;20091;-56
2024/02/05 07:38:33;;;;;;;14.45;8.75;;;;;;;;;;5084095;28;20017;-57
2024/02/05 07:41:00;;;;;;;13.00;9.50;;;;;;;;;;5084122;28;20029;-58
2024/02/05 07:43:27;;;;;;;15.65;9.48;;;;;;;;;;5083642;28;20048;-56
2024/02/05 07:45:53;;;;;;;15.02;9.30;;;;;;;;;;5084203;28;20075;-55
2024/02/05 07:48:20;;;;;;;13.13;9.18;;;;;;;;;;5083650;28;20040;-54
2024/02/05 07:50:47;;;;;;;14.32;8.82;;;;;;;;;;5083846;28;20028;-53
2024/02/05 07:53:13;;;;;;;14.45;9.43;;;;;;;;;;5083803;28;20043;-53
2024/02/05 07:55:40;;;;;;;11.20;8.07;;;;;;;;;;5083901;28;20023;-54
2024/02/05 07:58:06;;;;;;;12.15;8.85;;;;;;;;;;5083546;28;20028;-56
2024/02/05 08:00:33;;;;;;;15.38;9.27;;;;;;;;;;5071691;28;20147;-55
2024/02/05 08:03:00;;;;;;;13.73;9.45;;;;;;;;;;5085970;28;20095;-52
2024/02/05 08:05:26;;;;;;;11.90;8.90;;;;;;;;;;5087760;28;20032;-56
2024/02/05 08:07:53;;;;;;;15.05;9.40;;;;;;;;;;5087562;28;20119;-55
2024/02/05 08:10:19;;;;;;;17.95;9.35;;;;;;;;;;5087768;28;20043;-55
2024/02/05 08:12:46;;;;;;;13.05;9.52;;;;;;;;;;5087505;28;20084;-55
2024/02/05 08:15:13;;;;;;;18.15;9.48;;;;;;;;;;5087532;28;20028;-58
2024/02/05 08:17:39;;;;;;;14.00;9.82;;;;;;;;;;5087455;28;20261;-56
2024/02/05 08:20:08;;;;;;;15.15;9.23;;;;;;;;;;5087486;28;20074;-55
2024/02/05 08:22:34;;;;;;;14.43;9.40;;;;;;;;;;5087157;28;20028;-60
2024/02/05 08:25:01;;;;;;;12.70;9.52;;;;;;;;;;5087291;28;20182;-54
2024/02/05 08:27:28;;;;;;;14.02;9.48;;;;;;;;;;5087109;28;20024;-62
2024/02/05 08:29:54;;;;;;;12.50;9.07;;;;;;;;;;5087088;28;20065;-55
2024/02/05 08:32:21;;;;;;;12.93;9.43;;;;;;;;;;5087036;28;20366;-57
2024/02/05 08:34:48;;;;;;;14.20;9.82;;;;;;;;;;5086899;28;20024;-56
2024/02/05 08:37:14;;;;;;;12.15;9.60;;;;;;;;;;5086861;28;20088;-59
2024/02/05 08:39:41;;;;;;;13.80;9.75;;;;;;;;;;5087100;28;20028;-56
2024/02/05 08:42:08;;;;;;;14.55;9.68;;;;;;;;;;5086922;28;20336;-58
2024/02/05 08:44:34;;;;;;;16.52;10.30;;;;;;;;;;5086566;28;20052;-54
2024/02/05 08:47:01;;;;;;;11.07;8.88;;;;;;;;;;5086845;28;20031;-54
2024/02/05 08:49:27;;;;;;;15.18;10.23;;;;;;;;;;5086781;28;20017;-57
2024/02/05 08:51:56;;;;;;;16.85;10.13;;;;;;;;;;5086553;28;20027;-55
2024/02/05 08:54:23;;;;;;;17.05;10.30;;;;;;;;;;5086582;28;20023;-57
2024/02/05 08:56:49;;;;;;;13.75;10.98;;;;;;;;;;5086668;28;20024;-54
2024/02/05 08:59:16;;;;;;;15.98;10.10;;;;;;;;;;5086539;28;20046;-54
2024/02/05 09:01:42;;;;;;;15.02;10.63;;;;;;;;;;5086516;28;20116;-56
2024/02/05 09:04:09;;;;;;;16.02;10.98;;;;;;;;;;5086760;28;20178;-56
2024/02/05 09:06:36;;;;;;;15.43;10.68;;;;;;;;;;5086723;28;20032;-56
2024/02/05 09:09:03;;;;;;;15.85;10.32;;;;;;;;;;5086365;28;20067;-57
2024/02/05 09:11:31;;;;;;;19.83;11.50;;;;;;;;;;5086507;28;20028;-54
2024/02/05 09:13:58;;;;;;;18.08;11.77;;;;;;;;;;5086150;28;20347;-53
2024/02/05 09:16:25;;;;;;;18.17;11.13;;;;;;;;;;5086725;28;20265;-57
2024/02/05 09:18:51;;;;;;;14.25;10.07;;;;;;;;;;5086299;28;20216;-59
2024/02/05 09:21:18;;;;;;;16.33;11.10;;;;;;;;;;5086055;28;20035;-59
2024/02/05 09:23:44;;;;;;;18.98;10.30;;;;;;;;;;5086251;28;20088;-58
2024/02/05 09:26:11;;;;;;;15.07;9.60;;;;;;;;;;5086394;28;20024;-55
2024/02/05 09:28:38;;;;;;;14.32;8.98;;;;;;;;;;5085927;28;20028;-57
2024/02/05 09:31:04;;;;;;;14.88;8.45;;;;;;;;;;5086474;28;20017;-58
2024/02/05 09:33:31;;;;;;;12.88;7.70;;;;;;;;;;5086055;28;20021;-56
2024/02/05 09:35:58;;;;;;;10.10;6.78;;;;;;;;;;5086234;28;20251;-57
2024/02/05 09:38:24;;;;;;;11.65;7.20;;;;;;;;;;5085839;28;20225;-57
2024/02/05 09:40:56;;;;;;;8.93;6.55;;;;;;;;;;5086227;28;20070;-54
2024/02/05 09:43:23;;;;;;;10.63;6.47;;;;;;;;;;5085520;28;20064;-57
2024/02/05 09:45:51;;;;;;;13.35;6.53;;;;;;;;;;5086027;28;20100;-55
2024/02/05 09:48:17;;;;;;;11.00;6.43;;;;;;;;;;5085581;28;20028;-55
2024/02/05 09:50:44;;;;;;;10.05;5.88;;;;;;;;;;5085729;28;20021;-56
2024/02/05 09:53:11;;;;;;;9.88;5.95;;;;;;;;;;5085578;28;20040;-55
2024/02/05 09:55:38;;;;;;;9.43;5.70;;;;;;;;;;5085864;28;20027;-58
2024/02/05 09:58:05;;;;;;;8.68;5.70;;;;;;;;;;5085332;28;20047;-54
2024/02/05 10:00:32;;;;;;;11.15;5.57;;;;;;;;;;5085755;28;20257;-56
2024/02/05 10:02:59;;;;;;;11.63;5.68;;;;;;;;;;5085292;28;20025;-55
2024/02/05 10:05:26;;;;;;;9.18;5.53;;;;;;;;;;5085117;28;20320;-53
2024/02/05 10:07:53;;;;;;;8.13;5.63;;;;;;;;;;5085171;28;20040;-53
2024/02/05 10:10:20;;;;;;;7.20;4.85;;;;;;;;;;5085382;28;20016;-57
2024/02/05 10:12:48;;;;;;;7.63;4.35;;;;;;;;;;5085103;28;20224;-53
2024/02/05 10:15:14;;;;;;;7.28;3.92;;;;;;;;;;5085247;28;20050;-58
2024/02/05 10:17:43;;;;;;;11.40;4.00;;;;;;;;;;5085155;28;20024;-57
2024/02/05 10:20:12;;;;;;;6.47;3.65;;;;;;;;;;5085076;28;20305;-58
2024/02/05 10:22:46;;;;;;;6.55;3.83;;;;;;;;;;5084232;28;20032;-60
2024/02/05 10:25:16;;;;;;;6.00;3.97;;;;;;;;;;5084997;28;20090;-59
2024/02/05 10:27:43;;;;;;;5.93;3.88;;;;;;;;;;5084641;28;20089;-63
2024/02/05 10:30:09;;;;;;;7.38;4.25;;;;;;;;;;5084933;28;20288;-60
2024/02/05 10:32:36;;;;;;;7.70;4.65;;;;;;;;;;5084720;28;20043;-57
2024/02/05 10:35:03;;;;;;;7.80;4.40;;;;;;;;;;5084677;28;20023;-61
2024/02/05 10:37:30;;;;;;;5.45;4.18;;;;;;;;;;5084623;28;20024;-58
2024/02/05 10:40:12;;;;;;;7.60;4.22;;;;;;;;;;5084662;28;20028;-54
2024/02/05 10:42:38;;;;;;;5.28;4.00;;;;;;;;;;5084700;28;20032;-61
2024/02/05 10:45:07;;;;;;;6.70;4.28;;;;;;;;;;5084510;28;20221;-57
2024/02/05 10:47:34;;;;;;;7.13;4.80;;;;;;;;;;5084255;28;20027;-62
2024/02/05 10:50:01;;;;;;;5.90;3.92;;;;;;;;;;5084390;28;20088;-60
2024/02/05 10:52:28;;;;;;;6.65;3.78;;;;;;;;;;5084364;28;20357;-56
2024/02/05 10:54:56;;;;;;;5.90;4.43;;;;;;;;;;5084389;28;20070;-56
2024/02/05 10:57:26;;;;;;;6.05;4.13;;;;;;;;;;5084210;28;20028;-56
2024/02/05 10:59:53;;;;;;;5.90;3.78;;;;;;;;;;5084222;28;20126;-58
2024/02/05 11:02:23;;;;;;;9.07;4.40;;;;;;;;;;5082890;28;20335;-58
2024/02/05 11:04:52;;;;;;;8.10;3.90;;;;;;;;;;5084186;28;20100;-57
2024/02/05 11:07:20;;;;;;;5.28;4.00;;;;;;;;;;5084054;28;20029;-58
2024/02/05 11:09:49;;;;;;;6.07;3.90;;;;;;;;;;5084084;28;20020;-57
2024/02/05 11:12:16;;;;;;;11.88;4.43;;;;;;;;;;5084096;28;20020;-55
2024/02/05 11:14:46;;;;;;;14.10;4.20;;;;;;;;;;5084227;28;20024;-56
2024/02/05 11:17:14;;;;;;;13.02;4.20;;;;;;;;;;5083902;28;20076;-58
2024/02/05 11:19:41;;;;;;;13.57;4.47;;;;;;;;;;5083983;28;20027;-61
2024/02/05 11:22:10;;;;;;;8.48;4.38;;;;;;;;;;5083984;28;20048;-62
2024/02/05 11:24:37;;;;;;;10.20;4.32;;;;;;;;;;5084136;28;20055;-63
2024/02/05 11:27:06;;;;;;;7.60;4.78;;;;;;;;;;5083837;28;20070;-63
2024/02/05 11:29:33;;;;;;;6.55;4.65;;;;;;;;;;5083909;28;20036;-61
2024/02/05 11:32:00;;;;;;;12.63;4.57;;;;;;;;;;5083744;28;20031;-62
2024/02/05 11:34:34;;;;;;;9.65;5.10;;;;;;;;;;5083818;28;20026;-60
2024/02/05 11:37:04;;;;;;;9.98;4.90;;;;;;;;;;5083703;28;20074;-57
2024/02/05 11:39:31;;;;;;;10.52;5.22;;;;;;;;;;5084064;28;20023;-58
2024/02/05 11:42:06;;;;;;;15.48;5.38;;;;;;;;;;5083935;28;20325;-58
2024/02/05 11:44:33;;;;;;;12.77;5.35;;;;;;;;;;5083520;28;20116;-57
2024/02/05 11:47:00;;;;;;;14.50;4.95;;;;;;;;;;5083641;28;20036;-59
2024/02/05 11:49:33;;;;;;;11.95;4.95;;;;;;;;;;5083764;28;20036;-58
2024/02/05 11:52:00;;;;;;;13.13;4.78;;;;;;;;;;5083565;28;20313;-58
2024/02/05 11:54:33;;;;;;;8.60;4.60;;;;;;;;;;5083747;28;20027;-58
2024/02/05 11:57:00;;;;;;;7.90;4.25;;;;;;;;;;5083608;28;20040;-58
2024/02/05 11:59:26;;;;;;;11.00;4.80;;;;;;;;;;5084007;28;20032;-59
2024/02/05 12:01:53;;;;;;;7.68;4.72;;;;;;;;;;5083643;28;20036;-59
2024/02/05 12:04:20;;;;;;;10.43;4.82;;;;;;;;;;5083560;28;20083;-55
2024/02/05 12:06:47;;;;;;;10.50;4.90;;;;;;;;;;5083431;28;20032;-57
2024/02/05 12:09:15;;;;;;;9.98;4.53;;;;;;;;;;5083421;28;20021;-56
2024/02/05 12:11:42;;;;;;;12.20;4.32;;;;;;;;;;5083595;28;20266;-56
2024/02/05 12:14:11;;;;;;;8.63;4.30;;;;;;;;;;5083504;28;20083;-58
2024/02/05 12:16:39;;;;;;;9.57;4.38;;;;;;;;;;5083973;28;20317;-57
2024/02/05 12:19:08;;;;;;;10.00;4.25;;;;;;;;;;5083346;28;20372;-56
2024/02/05 12:21:35;;;;;;;8.68;4.10;;;;;;;;;;5083379;28;20190;-59
2024/02/05 12:24:02;;;;;;;7.18;3.60;;;;;;;;;;5083496;28;20054;-60
2024/02/05 12:26:28;;;;;;;7.65;3.70;;;;;;;;;;5083745;28;20087;-59
2024/02/05 12:28:56;;;;;;;6.68;4.00;;;;;;;;;;5083386;28;20036;-60
2024/02/05 12:31:23;;;;;;;8.10;3.65;;;;;;;;;;5083795;28;20076;-60
2024/02/05 12:33:50;;;;;;;8.32;3.97;;;;;;;;;;5083250;28;20025;-54
2024/02/05 12:36:17;;;;;;;7.82;4.03;;;;;;;;;;5083779;28;20016;-59
2024/02/05 12:38:43;;;;;;;9.63;3.70;;;;;;;;;;5083344;28;20070;-57
2024/02/05 12:41:10;;;;;;;9.00;3.75;;;;;;;;;;5083666;28;20024;-60
2024/02/05 12:43:36;;;;;;;10.45;4.45;;;;;;;;;;5082948;28;20443;-57
2024/02/05 12:46:04;;;;;;;11.63;4.05;;;;;;;;;;5084745;28;20031;-57
2024/02/05 12:48:31;;;;;;;9.77;4.00;;;;;;;;;;5086776;28;20028;-60
2024/02/05 12:50:59;;;;;;;9.57;3.90;;;;;;;;;;5087093;28;20295;-58
2024/02/05 12:53:26;;;;;;;9.23;3.78;;;;;;;;;;5086828;28;20069;-58
2024/02/05 12:55:53;;;;;;;11.40;4.00;;;;;;;;;;5086979;28;20020;-58
2024/02/05 12:58:22;;;;;;;8.05;3.97;;;;;;;;;;5086514;28;20221;-58
2024/02/05 13:00:49;;;;;;;5.35;4.05;;;;;;;;;;5086978;28;20044;-58
2024/02/05 13:03:16;;;;;;;6.90;4.10;;;;;;;;;;5086559;28;20027;-59
2024/02/05 13:05:43;;;;;;;9.05;4.10;;;;;;;;;;5086743;28;20020;-59
2024/02/05 13:08:11;;;;;;;7.00;4.50;;;;;;;;;;5086375;28;20036;-59
2024/02/05 13:10:42;;;;;;;4.68;3.95;;;;;;;;;;5086909;28;20024;-57
2024/02/05 13:13:09;;;;;;;6.95;3.90;;;;;;;;;;5086329;28;20025;-58
2024/02/05 13:15:37;;;;;;;4.85;3.90;;;;;;;;;;5086518;28;20031;-58
2024/02/05 13:18:08;;;;;;;5.20;3.80;;;;;;;;;;5086123;28;20023;-58
2024/02/05 13:20:35;;;;;;;6.88;3.95;;;;;;;;;;5086432;28;20024;-59
2024/02/05 13:23:02;;;;;;;5.38;3.80;;;;;;;;;;5086311;28;20016;-59
2024/02/05 13:25:29;;;;;;;7.95;4.35;;;;;;;;;;5086295;28;20301;-58
2024/02/05 13:27:56;;;;;;;4.25;3.47;;;;;;;;;;5085986;28;20039;-58
2024/02/05 13:30:22;;;;;;;4.97;3.10;;;;;;;;;;5086397;28;20308;-57
2024/02/05 13:32:49;;;;;;;4.65;3.45;;;;;;;;;;5085902;28;20032;-58
2024/02/05 13:35:17;;;;;;;6.18;3.50;;;;;;;;;;5086155;28;20020;-58
2024/02/05 13:37:43;;;;;;;3.65;3.15;;;;;;;;;;5086224;28;20034;-57
2024/02/05 13:40:10;;;;;;;4.22;3.22;;;;;;;;;;5085936;28;20024;-58
2024/02/05 13:42:46;;;;;;;5.22;3.40;;;;;;;;;;5085778;28;20069;-58
2024/02/05 13:45:13;;;;;;;6.22;3.63;;;;;;;;;;5085781;28;20058;-58
2024/02/05 13:47:41;;;;;;;7.72;3.80;;;;;;;;;;5085641;28;20067;-57
2024/02/05 13:50:09;;;;;;;6.97;4.10;;;;;;;;;;5085695;28;20028;-59
2024/02/05 13:52:36;;;;;;;8.68;3.72;;;;;;;;;;5085588;28;20031;-57
2024/02/05 13:55:02;;;;;;;10.75;4.05;;;;;;;;;;5085537;28;20038;-59
2024/02/05 13:57:29;;;;;;;9.60;4.10;;;;;;;;;;5084532;28;20063;-59
2024/02/05 13:59:56;;;;;;;5.05;3.70;;;;;;;;;;5085619;28;20032;-58
2024/02/05 14:02:23;;;;;;;7.75;3.67;;;;;;;;;;5085291;28;20339;-60
2024/02/05 14:04:50;;;;;;;9.00;3.70;;;;;;;;;;5085413;28;20024;-59
2024/02/05 14:07:19;;;;;;;6.50;3.55;;;;;;;;;;5085178;28;20036;-59
2024/02/05 14:09:46;;;;;;;5.13;3.60;;;;;;;;;;5085094;28;20044;-59
2024/02/05 14:12:13;;;;;;;6.35;3.92;;;;;;;;;;5081232;28;20201;-56
2024/02/05 14:14:39;;;;;;;4.78;3.58;;;;;;;;;;5065693;28;20025;-57
2024/02/05 14:17:06;;;;;;;7.03;3.55;;;;;;;;;;5064985;28;20045;-58
2024/02/05 14:19:35;;;;;;;5.03;3.70;;;;;;;;;;5065169;28;20027;-58
2024/02/05 14:22:02;;;;;;;7.85;4.22;;;;;;;;;;5064954;28;20028;-59
2024/02/05 14:24:28;;;;;;;7.32;3.80;;;;;;;;;;5064975;28;20017;-59
2024/02/05 14:26:55;;;;;;;5.32;4.03;;;;;;;;;;5064806;28;20123;-58